createdAt,value
2018-02-14T00:00:30.675Z,93200.45
2018-02-14T00:02:57.349Z,93203.82
2018-02-14T00:05:24.722Z,93200.85
2018-02-14T00:07:52.115Z,93201.56
2018-02-14T00:10:18.791Z,93204.94
2018-02-14T00:12:45.455Z,93203.11
2018-02-14T00:15:12.801Z,93211.66
2018-02-14T00:17:40.212Z,93206.52
2018-02-14T00:20:06.830Z,93215.24
2018-02-14T00:22:33.442Z,93218.12
2018-02-14T00:25:00.076Z,93228.77
2018-02-14T00:27:26.674Z,93225.37
2018-02-14T00:29:53.333Z,93220.78
2018-02-14T00:32:19.948Z,93222.30
2018-02-14T00:34:46.583Z,93221.98
2018-02-14T00:37:13.266Z,93218.74
2018-02-14T00:39:39.881Z,93225.05
2018-02-14T00:42:06.462Z,93220.25
2018-02-14T00:44:33.150Z,93221.83
2018-02-14T00:46:59.778Z,93224.16
2018-02-14T00:49:26.377Z,93221.84
2018-02-14T00:51:53.787Z,93223.33
2018-02-14T00:54:20.395Z,93215.98
2018-02-14T00:56:46.967Z,93220.44
2018-02-14T00:59:13.561Z,93217.93
2018-02-14T01:01:40.246Z,93223.37
2018-02-14T01:04:06.890Z,93220.78
2018-02-14T01:06:33.502Z,93216.67
2018-02-14T01:09:00.177Z,93220.56
2018-02-14T01:11:27.526Z,93221.11
2018-02-14T01:13:54.133Z,93227.16
2018-02-14T01:16:20.711Z,93217.23
2018-02-14T01:18:48.038Z,93216.08
2018-02-14T01:21:14.675Z,93221.08
2018-02-14T01:23:41.295Z,93227.23
2018-02-14T01:26:07.895Z,93226.16
2018-02-14T01:28:34.481Z,93233.94
2018-02-14T01:31:01.117Z,93236.11
2018-02-14T01:33:27.743Z,93251.14
2018-02-14T01:35:54.341Z,93250.06
2018-02-14T01:38:20.954Z,93249.38
2018-02-14T01:40:47.570Z,93249.23
2018-02-14T01:43:14.176Z,93239.78
2018-02-14T01:45:41.603Z,93244.22
2018-02-14T01:48:08.230Z,93251.14
2018-02-14T01:50:38.965Z,93243.30
2018-02-14T01:53:06.354Z,93250.48
2018-02-14T01:55:32.954Z,93253.88
2018-02-14T01:57:59.875Z,93252.83
2018-02-14T02:00:26.534Z,93260.04
2018-02-14T02:02:53.192Z,93265.05
2018-02-14T02:05:19.910Z,93272.17
2018-02-14T02:07:47.263Z,93281.69
2018-02-14T02:10:13.918Z,93283.16
2018-02-14T02:12:40.538Z,93280.92
2018-02-14T02:15:07.102Z,93282.67
2018-02-14T02:17:33.727Z,93281.34
2018-02-14T02:20:00.363Z,93291.88
2018-02-14T02:22:26.998Z,93284.47
2018-02-14T02:24:53.622Z,93295.59
2018-02-14T02:27:20.234Z,93289.86
2018-02-14T02:29:46.852Z,93293.05
2018-02-14T02:32:13.459Z,93284.68
2018-02-14T02:34:40.082Z,93284.30
2018-02-14T02:37:06.702Z,93284.08
2018-02-14T02:39:51.555Z,93279.20
2018-02-14T02:42:19.085Z,93282.72
2018-02-14T02:44:46.459Z,93284.50
2018-02-14T02:47:13.149Z,93281.70
2018-02-14T02:49:39.775Z,93287.45
2018-02-14T02:52:06.455Z,93285.63
2018-02-14T02:54:33.058Z,93287.54
2018-02-14T02:57:00.399Z,93282.59
2018-02-14T02:59:27.766Z,93294.41
2018-02-14T03:01:54.421Z,93294.37
2018-02-14T03:04:21.019Z,93293.46
2018-02-14T03:06:47.669Z,93294.27
2018-02-14T03:09:14.298Z,93292.77
2018-02-14T03:11:41.639Z,93285.31
2018-02-14T03:14:08.582Z,93287.45
2018-02-14T03:16:35.140Z,93289.18
2018-02-14T03:19:01.733Z,93289.49
2018-02-14T03:21:29.103Z,93290.22
2018-02-14T03:23:55.972Z,93291.03
2018-02-14T03:26:22.610Z,93298.05
2018-02-14T03:28:49.952Z,93297.86
2018-02-14T03:31:16.653Z,93304.27
2018-02-14T03:33:43.241Z,93304.77
2018-02-14T03:36:10.582Z,93310.83
2018-02-14T03:38:37.190Z,93311.41
2018-02-14T03:41:03.959Z,93322.39
2018-02-14T03:43:30.615Z,93317.89
2018-02-14T03:45:57.961Z,93329.63
2018-02-14T03:48:24.607Z,93343.52
2018-02-14T03:50:51.944Z,93347.40
2018-02-14T03:53:18.535Z,93343.97
2018-02-14T03:55:45.131Z,93345.53
2018-02-14T03:58:12.487Z,93351.08
2018-02-14T04:00:39.086Z,93350.94
2018-02-14T04:03:06.493Z,93349.55
2018-02-14T04:05:33.086Z,93351.80
2018-02-14T04:07:59.701Z,93352.53
2018-02-14T04:10:26.299Z,93358.64
2018-02-14T04:12:52.909Z,93358.59
2018-02-14T04:15:19.502Z,93361.86
2018-02-14T04:17:46.117Z,93360.23
2018-02-14T04:20:12.690Z,93362.69
2018-02-14T04:22:39.290Z,93369.11
2018-02-14T04:25:05.930Z,93361.94
2018-02-14T04:27:32.703Z,93361.59
2018-02-14T04:29:59.318Z,93366.48
2018-02-14T04:32:25.922Z,93365.98
2018-02-14T04:34:53.246Z,93371.98
2018-02-14T04:37:19.847Z,93377.48
2018-02-14T04:39:46.503Z,93374.25
2018-02-14T04:42:13.131Z,93378.84
2018-02-14T04:44:39.902Z,93379.34
2018-02-14T04:47:06.566Z,93383.94
2018-02-14T04:49:33.896Z,93389.05
2018-02-14T04:52:01.281Z,93386.95
2018-02-14T04:54:27.881Z,93389.75
2018-02-14T04:56:54.536Z,93386.33
2018-02-14T04:59:21.286Z,93393.23
2018-02-14T05:01:48.646Z,93399.42
2018-02-14T05:04:15.237Z,93410.92
2018-02-14T05:06:41.873Z,93413.88
2018-02-14T05:09:08.480Z,93419.66
2018-02-14T05:11:35.133Z,93425.57
2018-02-14T05:14:01.731Z,93428.04
2018-02-14T05:16:28.392Z,93423.81
2018-02-14T05:18:54.985Z,93432.95
2018-02-14T05:21:21.724Z,93437.98
2018-02-14T05:23:48.343Z,93443.03
2018-02-14T05:26:15.723Z,93444.60
2018-02-14T05:28:42.387Z,93447.39
2018-02-14T05:31:09.008Z,93447.03
2018-02-14T05:33:36.399Z,93447.86
2018-02-14T05:36:03.042Z,93449.62
2018-02-14T05:38:29.670Z,93456.52
2018-02-14T05:40:56.311Z,93460.01
2018-02-14T05:43:22.930Z,93459.48
2018-02-14T05:45:49.578Z,93455.20
2018-02-14T05:48:16.150Z,93463.17
2018-02-14T05:50:42.746Z,93461.66
2018-02-14T05:53:09.372Z,93464.56
2018-02-14T05:55:35.996Z,93475.03
2018-02-14T05:58:03.375Z,93486.23
2018-02-14T06:00:30.076Z,93480.90
2018-02-14T06:02:56.695Z,93490.86
2018-02-14T06:05:23.339Z,93490.02
2018-02-14T06:07:49.939Z,93491.20
2018-02-14T06:10:16.566Z,93490.60
2018-02-14T06:12:43.883Z,93497.02
2018-02-14T06:15:11.249Z,93507.73
2018-02-14T06:17:38.624Z,93508.69
2018-02-14T06:20:05.241Z,93514.22
2018-02-14T06:22:31.863Z,93511.17
2018-02-14T06:24:59.256Z,93518.67
2018-02-14T06:27:25.900Z,93517.98
2018-02-14T06:29:52.910Z,93523.67
2018-02-14T06:32:19.586Z,93538.69
2018-02-14T06:34:46.200Z,93534.77
2018-02-14T06:37:13.568Z,93542.23
2018-02-14T06:39:40.218Z,93540.88
2018-02-14T06:42:06.919Z,93543.77
2018-02-14T06:44:33.574Z,93550.79
2018-02-14T06:47:00.330Z,93552.55
2018-02-14T06:49:26.933Z,93551.84
2018-02-14T06:51:53.637Z,93553.00
2018-02-14T06:54:20.249Z,93555.69
2018-02-14T06:56:46.859Z,93558.89
2018-02-14T06:59:14.251Z,93561.27
2018-02-14T07:01:40.923Z,93564.02
2018-02-14T07:04:07.522Z,93564.33
2018-02-14T07:06:34.218Z,93562.09
2018-02-14T07:09:01.729Z,93571.28
2018-02-14T07:11:28.387Z,93570.39
2018-02-14T07:13:55.106Z,93579.30
2018-02-14T07:16:22.158Z,93570.78
2018-02-14T07:18:48.905Z,93574.91
2018-02-14T07:21:15.690Z,93578.57
2018-02-14T07:23:42.468Z,93583.33
2018-02-14T07:26:09.123Z,93588.84
2018-02-14T07:28:35.795Z,93590.97
2018-02-14T07:31:02.397Z,93593.19
2018-02-14T07:33:29.049Z,93597.63
2018-02-14T07:35:55.678Z,93592.31
2018-02-14T07:38:22.293Z,93587.75
2018-02-14T07:40:48.974Z,93586.75
2018-02-14T07:43:15.642Z,93587.25
2018-02-14T07:45:43.022Z,93593.20
2018-02-14T07:48:09.671Z,93583.98
2018-02-14T07:50:37.062Z,93585.62
2018-02-14T07:53:03.724Z,93592.19
2018-02-14T07:55:30.369Z,93591.19
2018-02-14T07:57:56.978Z,93594.30
2018-02-14T08:00:24.334Z,93594.28
2018-02-14T08:02:50.978Z,93600.22
2018-02-14T08:05:17.567Z,93599.24
2018-02-14T08:07:44.152Z,93600.72
2018-02-14T08:10:10.827Z,93606.61
2018-02-14T08:12:37.426Z,93605.23
2018-02-14T08:15:04.803Z,93608.11
2018-02-14T08:17:31.430Z,93613.47
2018-02-14T08:19:58.764Z,93610.70
2018-02-14T08:22:25.388Z,93614.44
2018-02-14T08:24:52.011Z,93609.50
2018-02-14T08:27:18.655Z,93605.59
2018-02-14T08:29:45.236Z,93606.02
2018-02-14T08:32:11.907Z,93604.70
2018-02-14T08:34:38.592Z,93599.47
2018-02-14T08:37:05.354Z,93600.44
2018-02-14T08:39:32.728Z,93599.22
2018-02-14T08:41:59.496Z,93604.39
2018-02-14T08:44:26.071Z,93604.77
2018-02-14T08:46:52.693Z,93598.69
2018-02-14T08:49:19.307Z,93593.28
2018-02-14T08:51:45.910Z,93598.97
2018-02-14T08:54:13.260Z,93595.45
2018-02-14T08:56:39.830Z,93602.52
2018-02-14T08:59:06.434Z,93605.33
2018-02-14T09:01:32.991Z,93602.39
2018-02-14T09:03:59.610Z,93600.12
2018-02-14T09:06:26.188Z,93605.94
2018-02-14T09:08:52.797Z,93615.05
2018-02-14T09:11:19.386Z,93614.77
2018-02-14T09:13:46.714Z,93612.97
2018-02-14T09:16:15.088Z,93606.05
2018-02-14T09:18:41.706Z,93604.50
2018-02-14T09:21:08.317Z,93606.41
2018-02-14T09:23:34.951Z,93609.20
2018-02-14T09:26:02.311Z,93608.02
2018-02-14T09:28:28.995Z,93611.24
2018-02-14T09:30:55.612Z,93611.98
2018-02-14T09:33:22.208Z,93611.47
2018-02-14T09:35:49.650Z,93605.16
2018-02-14T09:38:16.223Z,93615.48
2018-02-14T09:40:42.859Z,93616.88
2018-02-14T09:43:09.462Z,93617.28
2018-02-14T09:45:36.074Z,93612.26
2018-02-14T09:48:02.725Z,93611.15
2018-02-14T09:50:29.330Z,93616.45
2018-02-14T09:52:56.274Z,93624.91
2018-02-14T09:55:22.937Z,93621.04
2018-02-14T09:57:49.513Z,93613.12
2018-02-14T10:00:16.168Z,93625.47
2018-02-14T10:02:42.783Z,93621.89
2018-02-14T10:05:10.179Z,93631.78
2018-02-14T10:07:36.741Z,93628.33
2018-02-14T10:10:03.335Z,93633.61
2018-02-14T10:12:30.066Z,93634.89
2018-02-14T10:14:57.402Z,93625.78
2018-02-14T10:17:24.727Z,93634.78
2018-02-14T10:19:52.121Z,93634.66
2018-02-14T10:22:19.459Z,93630.36
2018-02-14T10:24:46.077Z,93637.80
2018-02-14T10:27:12.646Z,93640.80
2018-02-14T10:29:40.233Z,93649.80
2018-02-14T10:32:06.843Z,93651.29
2018-02-14T10:34:34.195Z,93655.73
2018-02-14T10:37:01.535Z,93649.73
2018-02-14T10:39:28.110Z,93655.25
2018-02-14T10:41:54.806Z,93659.10
2018-02-14T10:44:21.437Z,93660.37
2018-02-14T10:46:48.050Z,93662.82
2018-02-14T10:49:14.653Z,93660.96
2018-02-14T10:51:41.262Z,93657.83
2018-02-14T10:54:07.922Z,93661.47
2018-02-14T10:56:34.532Z,93661.08
2018-02-14T10:59:01.145Z,93658.14
2018-02-14T11:01:33.755Z,93661.30
2018-02-14T11:06:53.745Z,93656.94
2018-02-14T11:09:20.333Z,93648.78
2018-02-14T11:11:46.991Z,93653.23
2018-02-14T11:14:13.710Z,93657.41
2018-02-14T11:16:40.310Z,93652.50
2018-02-14T11:19:06.982Z,93666.53
2018-02-14T11:21:33.618Z,93658.69
2018-02-14T11:24:00.203Z,93658.47
2018-02-14T11:26:26.830Z,93662.70
2018-02-14T11:28:53.425Z,93665.61
2018-02-14T11:31:20.124Z,93662.88
2018-02-14T11:33:46.786Z,93660.90
2018-02-14T11:36:13.375Z,93666.05
2018-02-14T11:38:39.994Z,93665.33
2018-02-14T11:41:06.596Z,93662.54
2018-02-14T11:43:33.200Z,93657.48
2018-02-14T11:45:59.837Z,93664.23
2018-02-14T11:48:26.450Z,93668.64
2018-02-14T11:50:53.038Z,93668.50
2018-02-14T11:53:19.723Z,93668.12
2018-02-14T11:55:46.317Z,93661.56
2018-02-14T11:58:12.950Z,93661.69
2018-02-14T12:00:39.645Z,93665.73
2018-02-14T12:03:06.385Z,93672.78
2018-02-14T12:05:32.951Z,93672.91
2018-02-14T12:08:00.321Z,93670.35
2018-02-14T12:10:27.650Z,93665.39
2018-02-14T12:12:54.319Z,93668.94
2018-02-14T12:15:20.950Z,93678.11
2018-02-14T12:17:48.298Z,93671.92
2018-02-14T12:20:14.954Z,93673.39
2018-02-14T12:22:41.571Z,93671.11
2018-02-14T12:25:09.067Z,93676.80
2018-02-14T12:27:35.783Z,93677.24
2018-02-14T12:30:02.523Z,93669.77
2018-02-14T12:32:29.112Z,93673.48
2018-02-14T12:34:55.687Z,93668.27
2018-02-14T12:37:23.178Z,93667.98
2018-02-14T12:39:49.795Z,93670.75
2018-02-14T12:42:16.414Z,93675.11
2018-02-14T12:44:43.048Z,93664.77
2018-02-14T12:47:09.640Z,93660.42
2018-02-14T12:49:36.296Z,93671.72
2018-02-14T12:52:02.928Z,93669.62
2018-02-14T12:54:30.317Z,93668.20
2018-02-14T12:56:57.716Z,93672.13
2018-02-14T12:59:24.373Z,93669.33
2018-02-14T13:01:51.119Z,93671.83
2018-02-14T13:04:17.754Z,93665.94
2018-02-14T13:06:44.374Z,93666.80
2018-02-14T13:09:11.020Z,93667.46
2018-02-14T13:11:37.792Z,93671.20
2018-02-14T13:14:04.370Z,93670.06
2018-02-14T13:16:30.988Z,93672.34
2018-02-14T13:18:58.343Z,93669.08
2018-02-14T13:21:25.702Z,93671.52
2018-02-14T13:23:52.313Z,93666.48
2018-02-14T13:26:18.978Z,93662.59
2018-02-14T13:28:45.626Z,93672.08
2018-02-14T13:31:12.258Z,93676.30
2018-02-14T13:33:38.858Z,93671.42
2018-02-14T13:36:05.492Z,93682.58
2018-02-14T13:38:32.095Z,93684.77
2018-02-14T13:40:58.669Z,93679.09
2018-02-14T13:43:26.055Z,93687.66
2018-02-14T13:45:53.419Z,93679.25
2018-02-14T13:48:21.156Z,93685.06
2018-02-14T13:50:48.496Z,93682.14
2018-02-14T13:53:15.913Z,93679.06
2018-02-14T13:55:42.539Z,93680.91
2018-02-14T13:58:09.113Z,93675.05
2018-02-14T14:00:35.812Z,93674.53
2018-02-14T14:03:02.430Z,93683.83
2018-02-14T14:05:29.857Z,93685.40
2018-02-14T14:07:56.559Z,93689.57
2018-02-14T14:10:23.199Z,93691.81
2018-02-14T14:12:49.799Z,93689.34
2018-02-14T14:15:16.459Z,93697.27
2018-02-14T14:17:43.114Z,93690.60
2018-02-14T14:20:09.738Z,93695.10
2018-02-14T14:22:37.170Z,93694.75
2018-02-14T14:25:04.491Z,93689.23
2018-02-14T14:27:31.082Z,93696.47
2018-02-14T14:29:57.686Z,93696.47
2018-02-14T14:32:24.290Z,93697.42
2018-02-14T14:34:50.866Z,93696.60
2018-02-14T14:37:17.558Z,93689.70
2018-02-14T14:39:44.168Z,93696.72
2018-02-14T14:42:10.851Z,93694.47
2018-02-14T14:44:37.419Z,93691.41
2018-02-14T14:47:04.739Z,93689.55
2018-02-14T14:49:31.557Z,93686.96
2018-02-14T14:51:58.170Z,93691.05
2018-02-14T14:54:24.740Z,93689.20
2018-02-14T14:56:51.394Z,93688.47
2018-02-14T14:59:17.984Z,93693.58
2018-02-14T15:01:44.582Z,93694.95
2018-02-14T15:04:11.934Z,93697.13
2018-02-14T15:06:38.542Z,93695.79
2018-02-14T15:09:05.149Z,93703.83
2018-02-14T15:11:31.734Z,93703.08
2018-02-14T15:13:58.362Z,93705.87
2018-02-14T15:16:25.026Z,93703.13
2018-02-14T15:18:51.617Z,93702.38
2018-02-14T15:21:18.207Z,93702.02
2018-02-14T15:23:44.824Z,93709.61
2018-02-14T15:26:12.243Z,93711.30
2018-02-14T15:28:38.968Z,93712.73
2018-02-14T15:31:05.582Z,93714.41
2018-02-14T15:33:32.914Z,93714.84
2018-02-14T15:35:59.555Z,93711.89
2018-02-14T15:38:26.162Z,93709.83
2018-02-14T15:40:52.890Z,93710.03
2018-02-14T15:43:19.501Z,93707.58
2018-02-14T15:45:46.103Z,93701.70
2018-02-14T15:48:12.700Z,93700.41
2018-02-14T15:50:39.309Z,93701.70
2018-02-14T15:53:05.904Z,93694.81
2018-02-14T15:55:32.503Z,93698.63
2018-02-14T15:57:59.125Z,93694.55
2018-02-14T16:00:25.718Z,93697.95
2018-02-14T16:02:52.343Z,93697.67
2018-02-14T16:05:18.943Z,93694.94
2018-02-14T16:07:45.541Z,93693.20
2018-02-14T16:10:12.956Z,93694.92
2018-02-14T16:12:39.600Z,93704.30
2018-02-14T16:15:06.228Z,93705.73
2018-02-14T16:17:32.885Z,93706.80
2018-02-14T16:19:59.464Z,93711.56
2018-02-14T16:22:26.846Z,93714.51
2018-02-14T16:24:53.427Z,93719.83
2018-02-14T16:27:20.022Z,93724.28
2018-02-14T16:29:46.610Z,93728.13
2018-02-14T16:32:14.030Z,93724.02
2018-02-14T16:34:40.645Z,93728.06
2018-02-14T16:37:07.267Z,93725.41
2018-02-14T16:39:33.907Z,93724.86
2018-02-14T16:42:00.525Z,93728.87
2018-02-14T16:44:27.851Z,93732.97
2018-02-14T16:46:54.591Z,93732.45
2018-02-14T16:49:22.675Z,93736.91
2018-02-14T16:51:50.019Z,93737.66
2018-02-14T16:54:16.625Z,93751.32
2018-02-14T16:56:43.209Z,93748.07
2018-02-14T16:59:10.553Z,93759.01
2018-02-14T17:01:37.881Z,93760.09
2018-02-14T17:04:04.522Z,93760.38
2018-02-14T17:06:31.155Z,93758.09
2018-02-14T17:08:57.790Z,93758.97
2018-02-14T17:11:24.366Z,93766.44
2018-02-14T17:13:51.981Z,93766.17
2018-02-14T17:16:18.637Z,93772.13
2018-02-14T17:18:45.243Z,93777.69
2018-02-14T17:21:11.853Z,93777.72
2018-02-14T17:23:39.190Z,93778.73
2018-02-14T17:26:06.614Z,93783.56
2018-02-14T17:28:33.254Z,93781.58
2018-02-14T17:30:59.912Z,93789.19
2018-02-14T17:33:26.506Z,93786.58
2018-02-14T17:35:53.116Z,93792.08
2018-02-14T17:38:19.708Z,93786.27
2018-02-14T17:40:46.336Z,93791.27
2018-02-14T17:43:12.981Z,93778.03
2018-02-14T17:45:39.574Z,93784.80
2018-02-14T17:48:06.175Z,93777.38
2018-02-14T17:50:32.820Z,93774.19
2018-02-14T17:53:00.169Z,93766.52
2018-02-14T17:55:27.502Z,93763.25
2018-02-14T17:57:54.110Z,93776.66
2018-02-14T18:00:20.768Z,93774.64
2018-02-14T18:02:47.373Z,93774.87
2018-02-14T18:05:13.974Z,93782.66
2018-02-14T18:07:41.330Z,93787.31
2018-02-14T18:10:08.000Z,93785.25
2018-02-14T18:12:34.645Z,93785.02
2018-02-14T18:15:01.241Z,93789.39
2018-02-14T18:17:27.892Z,93792.97
2018-02-14T18:19:55.270Z,93793.28
2018-02-14T18:22:21.877Z,93793.49
2018-02-14T18:24:49.244Z,93806.37
2018-02-14T18:27:15.835Z,93807.59
2018-02-14T18:29:42.446Z,93821.16
2018-02-14T18:32:09.060Z,93820.72
2018-02-14T18:34:35.651Z,93823.17
2018-02-14T18:37:02.314Z,93827.83
2018-02-14T18:39:29.631Z,93819.29
2018-02-14T18:41:56.285Z,93821.45
2018-02-14T18:44:22.878Z,93817.91
2018-02-14T18:46:49.486Z,93811.33
2018-02-14T18:49:16.126Z,93807.73
2018-02-14T18:51:43.026Z,93806.80
2018-02-14T18:54:09.646Z,93808.38
2018-02-14T18:56:36.252Z,93811.65
2018-02-14T18:59:03.631Z,93810.16
2018-02-14T19:01:30.250Z,93810.92
2018-02-14T19:03:56.882Z,93810.98
2018-02-14T19:06:23.501Z,93811.36
2018-02-14T19:08:50.102Z,93812.59
2018-02-14T19:11:17.036Z,93819.34
2018-02-14T19:13:43.720Z,93817.97
2018-02-14T19:16:10.364Z,93814.86
2018-02-14T19:18:36.986Z,93810.42
2018-02-14T19:21:04.712Z,93816.20
2018-02-14T19:23:32.302Z,93813.59
2018-02-14T19:25:58.917Z,93806.11
2018-02-14T19:28:25.531Z,93814.30
2018-02-14T19:30:52.231Z,93815.03
2018-02-14T19:33:18.862Z,93810.54
2018-02-14T19:35:46.250Z,93816.12
2018-02-14T19:38:12.950Z,93816.70
2018-02-14T19:40:39.601Z,93818.09
2018-02-14T19:43:06.476Z,93811.33
2018-02-14T19:45:33.122Z,93820.72
2018-02-14T19:47:59.756Z,93828.26
2018-02-14T19:50:26.482Z,93826.70
2018-02-14T19:52:53.117Z,93824.02
2018-02-14T19:55:19.766Z,93827.70
2018-02-14T19:57:46.393Z,93824.47
2018-02-14T20:00:13.064Z,93825.90
2018-02-14T20:02:39.726Z,93820.36
2018-02-14T20:05:06.517Z,93817.59
2018-02-14T20:07:33.157Z,93819.36
2018-02-14T20:09:59.772Z,93820.44
2018-02-14T20:12:27.254Z,93816.30
2018-02-14T20:14:53.992Z,93817.70
2018-02-14T20:17:20.639Z,93819.39
2018-02-14T20:19:47.256Z,93809.88
2018-02-14T20:22:13.926Z,93813.44
2018-02-14T20:24:40.600Z,93812.70
2018-02-14T20:27:07.989Z,93813.44
2018-02-14T20:29:34.610Z,93812.27
2018-02-14T20:32:02.219Z,93808.84
2018-02-14T20:34:28.967Z,93808.60
2018-02-14T20:36:56.336Z,93814.92
2018-02-14T20:39:23.058Z,93816.56
2018-02-14T20:41:49.685Z,93816.38
2018-02-14T20:44:16.310Z,93818.89
2018-02-14T20:46:42.958Z,93823.87
2018-02-14T20:49:09.587Z,93817.72
2018-02-14T20:51:36.210Z,93813.98
2018-02-14T20:54:02.818Z,93809.83
2018-02-14T20:56:30.171Z,93810.14
2018-02-14T20:58:56.782Z,93807.66
2018-02-14T21:01:23.423Z,93807.62
2018-02-14T21:03:50.010Z,93808.91
2018-02-14T21:06:16.638Z,93811.48
2018-02-14T21:08:43.284Z,93810.87
2018-02-14T21:11:09.908Z,93801.98
2018-02-14T21:13:37.222Z,93797.36
2018-02-14T21:16:03.842Z,93797.01
2018-02-14T21:18:30.832Z,93797.16
2018-02-14T21:20:58.217Z,93799.64
2018-02-14T21:23:24.837Z,93797.27
2018-02-14T21:25:51.502Z,93801.06
2018-02-14T21:28:18.126Z,93810.94
2018-02-14T21:30:44.746Z,93806.42
2018-02-14T21:33:11.346Z,93801.22
2018-02-14T21:35:37.966Z,93802.70
2018-02-14T21:38:04.665Z,93801.11
2018-02-14T21:40:32.015Z,93804.44
2018-02-14T21:42:58.687Z,93805.19
2018-02-14T21:45:25.327Z,93808.83
2018-02-14T21:47:52.194Z,93812.51
2018-02-14T21:50:19.577Z,93804.86
2018-02-14T21:52:46.973Z,93803.98
2018-02-14T21:55:13.631Z,93806.55
2018-02-14T21:57:40.246Z,93809.28
2018-02-14T22:00:06.858Z,93811.44
2018-02-14T22:02:33.449Z,93811.53
2018-02-14T22:05:00.099Z,93813.31
2018-02-14T22:07:26.678Z,93795.95
2018-02-14T22:09:53.384Z,93783.36
2018-02-14T22:12:19.962Z,93780.25
2018-02-14T22:14:46.538Z,93770.66
2018-02-14T22:17:13.232Z,93762.41
2018-02-14T22:19:39.863Z,93760.91
2018-02-14T22:22:06.532Z,93760.55
2018-02-14T22:24:33.109Z,93764.88
2018-02-14T22:26:59.702Z,93762.36
2018-02-14T22:29:27.095Z,93763.37
2018-02-14T22:31:53.741Z,93759.11
2018-02-14T22:34:20.402Z,93763.89
2018-02-14T22:36:47.798Z,93751.56
2018-02-14T22:39:14.403Z,93755.17
2018-02-14T22:41:41.090Z,93748.42
2018-02-14T22:44:07.689Z,93745.50
2018-02-14T22:46:34.275Z,93732.41
2018-02-14T22:49:01.683Z,93734.41
2018-02-14T22:51:28.280Z,93737.95
2018-02-14T22:53:54.919Z,93732.64
2018-02-14T22:56:21.644Z,93731.16
2018-02-14T22:58:48.306Z,93735.20
2018-02-14T23:01:14.937Z,93745.69
2018-02-14T23:03:41.577Z,93752.72
2018-02-14T23:06:08.932Z,93744.53
2018-02-14T23:08:35.539Z,93745.58
2018-02-14T23:11:02.146Z,93744.08
2018-02-14T23:13:28.762Z,93755.92
2018-02-14T23:15:55.386Z,93772.41
2018-02-14T23:18:22.007Z,93781.55
2018-02-14T23:20:48.589Z,93784.52
2018-02-14T23:23:15.199Z,93777.05
2018-02-14T23:25:41.800Z,93771.80
2018-02-14T23:28:08.423Z,93780.23
2018-02-14T23:30:35.072Z,93766.70
2018-02-14T23:33:01.674Z,93756.99
2018-02-14T23:35:28.302Z,93756.55
2018-02-14T23:37:54.927Z,93748.36
2018-02-14T23:40:22.339Z,93741.19
2018-02-14T23:42:48.963Z,93743.79
2018-02-14T23:45:15.578Z,93744.55
2018-02-14T23:47:42.198Z,93745.96
2018-02-14T23:50:08.810Z,93743.63
2018-02-14T23:52:36.239Z,93746.22
2018-02-14T23:55:02.865Z,93743.27
2018-02-14T23:57:29.442Z,93737.72
2018-02-14T23:59:56.797Z,93746.71
